createdAt,value
2018-11-06T00:00:53.262Z,11.25
2018-11-06T00:03:28.037Z,11.23
2018-11-06T00:05:57.339Z,11.20
2018-11-06T00:08:26.745Z,11.18
2018-11-06T00:10:56.243Z,11.15
2018-11-06T00:13:25.762Z,11.14
2018-11-06T00:15:55.460Z,11.12
2018-11-06T00:18:25.308Z,11.10
2018-11-06T00:20:54.640Z,11.09
2018-11-06T00:23:25.715Z,11.06
2018-11-06T00:25:55.027Z,11.03
2018-11-06T00:28:24.375Z,11.03
2018-11-06T00:30:53.834Z,11.02
2018-11-06T00:33:23.444Z,11.00
2018-11-06T00:35:52.819Z,10.98
2018-11-06T00:38:22.575Z,10.95
2018-11-06T00:40:52.806Z,10.91
2018-11-06T00:43:22.303Z,10.89
2018-11-06T00:45:51.836Z,10.85
2018-11-06T00:48:21.186Z,10.81
2018-11-06T00:50:50.673Z,10.77
2018-11-06T00:53:20.095Z,10.73
2018-11-06T00:55:49.718Z,10.73
2018-11-06T00:58:19.702Z,10.72
2018-11-06T01:00:49.385Z,10.70
2018-11-06T01:03:18.742Z,10.72
2018-11-06T01:05:48.469Z,10.70
2018-11-06T01:08:18.158Z,10.65
2018-11-06T01:10:47.666Z,10.64
2018-11-06T01:13:17.291Z,10.63
2018-11-06T01:15:46.869Z,10.59
2018-11-06T01:18:16.409Z,10.57
2018-11-06T01:20:45.814Z,10.55
2018-11-06T01:23:15.234Z,10.50
2018-11-06T01:25:46.257Z,10.50
2018-11-06T01:28:15.668Z,10.46
2018-11-06T01:30:45.971Z,10.43
2018-11-06T01:33:15.917Z,10.43
2018-11-06T01:35:46.123Z,10.42
2018-11-06T01:38:16.642Z,10.41
2018-11-06T01:40:46.900Z,10.41
2018-11-06T01:43:16.654Z,10.38
2018-11-06T01:45:46.666Z,10.38
2018-11-06T01:48:16.413Z,10.36
2018-11-06T01:50:46.208Z,10.33
2018-11-06T01:53:15.925Z,10.31
2018-11-06T01:55:45.644Z,10.30
2018-11-06T01:58:15.331Z,10.29
2018-11-06T02:00:48.009Z,10.29
2018-11-06T02:03:18.259Z,10.29
2018-11-06T02:05:48.994Z,10.28
2018-11-06T02:08:18.491Z,10.29
2018-11-06T02:10:47.893Z,10.31
2018-11-06T02:13:23.728Z,10.32
2018-11-06T02:15:53.460Z,10.31
2018-11-06T02:18:24.619Z,10.30
2018-11-06T02:20:55.027Z,10.31
2018-11-06T02:23:24.357Z,10.32
2018-11-06T02:25:54.759Z,10.30
2018-11-06T02:28:24.152Z,10.29
2018-11-06T02:30:53.748Z,10.27
2018-11-06T02:33:23.245Z,10.25
2018-11-06T02:35:52.653Z,10.24
2018-11-06T02:38:22.437Z,10.23
2018-11-06T02:40:52.596Z,10.21
2018-11-06T02:43:21.914Z,10.21
2018-11-06T02:45:51.478Z,10.21
2018-11-06T02:48:21.747Z,10.21
2018-11-06T02:50:51.245Z,10.23
2018-11-06T02:53:20.790Z,10.24
2018-11-06T02:55:51.107Z,10.23
2018-11-06T02:58:21.579Z,10.25
2018-11-06T03:00:52.102Z,10.26
2018-11-06T03:03:21.489Z,10.23
2018-11-06T03:05:51.025Z,10.21
2018-11-06T03:08:20.415Z,10.22
2018-11-06T03:10:50.218Z,10.20
2018-11-06T03:13:19.475Z,10.23
2018-11-06T03:15:49.721Z,10.23
2018-11-06T03:18:19.039Z,10.24
2018-11-06T03:20:48.508Z,10.26
2018-11-06T03:23:17.863Z,10.30
2018-11-06T03:25:47.360Z,10.34
2018-11-06T03:28:16.927Z,10.42
2018-11-06T03:30:46.431Z,10.43
2018-11-06T03:33:16.067Z,10.43
2018-11-06T03:35:45.699Z,10.48
2018-11-06T03:38:15.360Z,10.51
2018-11-06T03:40:45.024Z,10.55
2018-11-06T03:43:14.535Z,10.66
2018-11-06T03:45:43.952Z,10.73
2018-11-06T03:48:13.785Z,10.72
2018-11-06T03:50:43.501Z,10.73
2018-11-06T03:53:13.008Z,10.79
2018-11-06T03:55:43.031Z,10.76
2018-11-06T03:58:12.792Z,10.78
2018-11-06T04:00:42.466Z,10.77
2018-11-06T04:03:12.110Z,10.77
2018-11-06T04:05:41.690Z,10.78
2018-11-06T04:08:11.882Z,10.77
2018-11-06T04:10:41.618Z,10.76
2018-11-06T04:13:11.630Z,10.74
2018-11-06T04:15:40.974Z,10.69
2018-11-06T04:18:10.614Z,10.67
2018-11-06T04:20:40.401Z,10.63
2018-11-06T04:23:10.913Z,10.61
2018-11-06T04:25:40.793Z,10.58
2018-11-06T04:28:10.979Z,10.58
2018-11-06T04:30:40.701Z,10.58
2018-11-06T04:33:10.438Z,10.63
2018-11-06T04:35:39.835Z,10.65
2018-11-06T04:38:09.933Z,10.70
2018-11-06T04:40:39.868Z,10.76
2018-11-06T04:43:12.431Z,10.77
2018-11-06T04:45:41.965Z,10.80
2018-11-06T04:48:11.500Z,10.82
2018-11-06T04:50:40.999Z,10.84
2018-11-06T04:53:10.660Z,10.85
2018-11-06T04:55:41.072Z,10.86
2018-11-06T04:58:10.911Z,10.87
2018-11-06T05:00:40.384Z,10.89
2018-11-06T05:03:10.419Z,10.90
2018-11-06T05:05:39.806Z,10.91
2018-11-06T05:08:10.793Z,10.89
2018-11-06T05:10:40.250Z,10.90
2018-11-06T05:13:10.501Z,10.87
2018-11-06T05:15:39.980Z,10.87
2018-11-06T05:18:10.682Z,10.84
2018-11-06T05:20:40.158Z,10.78
2018-11-06T05:23:09.850Z,10.76
2018-11-06T05:25:39.340Z,10.75
2018-11-06T05:28:08.989Z,10.76
2018-11-06T05:30:38.328Z,10.76
2018-11-06T05:33:07.688Z,10.80
2018-11-06T05:35:37.111Z,10.80
2018-11-06T05:38:06.829Z,10.81
2018-11-06T05:41:02.255Z,10.79
2018-11-06T05:43:31.603Z,10.77
2018-11-06T05:46:01.502Z,10.78
2018-11-06T05:48:31.117Z,10.76
2018-11-06T05:51:01.505Z,10.77
2018-11-06T05:53:31.914Z,10.74
2018-11-06T05:56:01.595Z,10.75
2018-11-06T05:58:31.027Z,10.73
2018-11-06T06:01:00.334Z,10.75
2018-11-06T06:03:29.648Z,10.75
2018-11-06T06:05:59.916Z,10.72
2018-11-06T06:08:29.374Z,10.73
2018-11-06T06:10:59.131Z,10.72
2018-11-06T06:13:28.603Z,10.70
2018-11-06T06:15:59.482Z,10.68
2018-11-06T06:18:29.133Z,10.67
2018-11-06T06:20:58.660Z,10.64
2018-11-06T06:23:28.140Z,10.61
2018-11-06T06:25:57.670Z,10.59
2018-11-06T06:28:27.208Z,10.58
2018-11-06T06:30:56.984Z,10.58
2018-11-06T06:33:26.704Z,10.57
2018-11-06T06:35:56.427Z,10.56
2018-11-06T06:38:25.928Z,10.53
2018-11-06T06:40:56.764Z,10.54
2018-11-06T06:43:26.716Z,10.54
2018-11-06T06:45:57.490Z,10.55
2018-11-06T06:48:28.917Z,10.55
2018-11-06T06:50:58.528Z,10.53
2018-11-06T06:53:29.212Z,10.53
2018-11-06T06:55:58.871Z,10.51
2018-11-06T06:58:28.636Z,10.50
2018-11-06T07:00:58.205Z,10.50
2018-11-06T07:03:30.812Z,10.51
2018-11-06T07:06:00.274Z,10.49
2018-11-06T07:08:29.705Z,10.53
2018-11-06T07:10:59.328Z,10.57
2018-11-06T07:13:28.792Z,10.65
2018-11-06T07:15:58.537Z,10.67
2018-11-06T07:18:31.076Z,10.69
2018-11-06T07:21:00.490Z,10.71
2018-11-06T07:23:29.818Z,10.73
2018-11-06T07:25:59.769Z,10.76
2018-11-06T07:28:29.156Z,10.79
2018-11-06T07:30:58.830Z,10.89
2018-11-06T07:33:28.254Z,10.95
2018-11-06T07:35:58.059Z,11.03
2018-11-06T07:38:27.627Z,11.08
2018-11-06T07:40:58.782Z,11.14
2018-11-06T07:43:28.914Z,11.20
2018-11-06T07:45:58.436Z,11.27
2018-11-06T07:48:28.176Z,11.35
2018-11-06T07:50:57.745Z,11.47
2018-11-06T07:53:27.325Z,11.48
2018-11-06T07:55:57.691Z,11.55
2018-11-06T07:58:27.388Z,11.61
2018-11-06T08:00:57.918Z,11.66
2018-11-06T08:03:27.938Z,11.69
2018-11-06T08:05:58.452Z,11.78
2018-11-06T08:08:28.073Z,11.86
2018-11-06T08:10:57.844Z,11.92
2018-11-06T08:13:28.518Z,11.96
2018-11-06T08:15:58.121Z,12.01
2018-11-06T08:18:28.782Z,12.09
2018-11-06T08:20:58.500Z,12.15
2018-11-06T08:23:28.207Z,12.24
2018-11-06T08:25:57.881Z,12.26
2018-11-06T08:28:28.935Z,12.29
2018-11-06T08:30:59.752Z,12.34
2018-11-06T08:33:30.941Z,12.39
2018-11-06T08:36:00.510Z,12.47
2018-11-06T08:38:30.190Z,12.59
2018-11-06T08:41:03.246Z,12.69
2018-11-06T08:43:32.800Z,12.77
2018-11-06T08:46:02.424Z,12.87
2018-11-06T08:48:33.647Z,12.92
2018-11-06T08:51:03.377Z,13.04
2018-11-06T08:53:32.938Z,13.06
2018-11-06T08:56:03.282Z,13.14
2018-11-06T08:58:32.995Z,13.15
2018-11-06T09:01:02.396Z,13.16
2018-11-06T09:03:32.314Z,13.23
2018-11-06T09:06:02.336Z,13.26
2018-11-06T09:08:32.036Z,13.35
2018-11-06T09:11:01.679Z,13.43
2018-11-06T09:13:32.379Z,13.52
2018-11-06T09:16:03.009Z,13.63
2018-11-06T09:18:32.574Z,13.70
2018-11-06T09:21:02.440Z,13.84
2018-11-06T09:23:32.079Z,13.89
2018-11-06T09:26:01.659Z,13.91
2018-11-06T09:28:31.375Z,13.96
2018-11-06T09:31:01.046Z,14.00
2018-11-06T09:33:31.259Z,14.10
2018-11-06T09:36:00.898Z,14.15
2018-11-06T09:38:37.171Z,14.22
2018-11-06T09:41:07.971Z,14.31
2018-11-06T09:43:37.695Z,14.36
2018-11-06T09:46:07.200Z,14.36
2018-11-06T09:48:37.563Z,14.35
2018-11-06T09:51:06.930Z,14.37
2018-11-06T09:53:36.285Z,14.34
2018-11-06T09:56:06.365Z,14.38
2018-11-06T09:58:35.800Z,14.38
2018-11-06T10:01:05.451Z,14.44
2018-11-06T10:03:35.166Z,14.48
2018-11-06T10:06:04.822Z,14.57
2018-11-06T10:08:34.521Z,14.61
2018-11-06T10:11:10.829Z,14.64
2018-11-06T10:13:40.308Z,14.69
2018-11-06T10:16:09.966Z,14.69
2018-11-06T10:18:39.720Z,14.75
2018-11-06T10:21:10.604Z,14.80
2018-11-06T10:23:40.119Z,14.91
2018-11-06T10:26:09.878Z,15.05
2018-11-06T10:28:40.120Z,15.13
2018-11-06T10:31:11.498Z,15.23
2018-11-06T10:33:42.945Z,15.29
2018-11-06T10:36:12.543Z,15.43
2018-11-06T10:38:42.810Z,15.43
2018-11-06T10:41:12.548Z,15.43
2018-11-06T10:43:43.171Z,15.51
2018-11-06T10:46:13.074Z,15.58
2018-11-06T10:48:42.983Z,15.66
2018-11-06T10:51:14.235Z,15.76
2018-11-06T10:53:44.730Z,15.81
2018-11-06T10:56:14.409Z,15.86
2018-11-06T10:58:44.011Z,15.92
2018-11-06T11:01:19.224Z,15.98
2018-11-06T11:04:26.363Z,16.02
2018-11-06T11:06:56.729Z,16.09
2018-11-06T11:09:26.992Z,16.20
2018-11-06T11:11:56.619Z,16.27
2018-11-06T11:14:26.921Z,16.36
2018-11-06T11:16:56.674Z,16.44
2018-11-06T11:19:26.345Z,16.51
2018-11-06T11:21:55.857Z,16.50
2018-11-06T11:24:26.893Z,16.53
2018-11-06T11:26:56.328Z,16.69
2018-11-06T11:29:26.498Z,16.73
2018-11-06T11:31:56.082Z,16.82
2018-11-06T11:34:26.202Z,16.86
2018-11-06T11:36:56.623Z,16.97
2018-11-06T11:39:27.111Z,17.00
2018-11-06T11:41:57.611Z,17.08
2018-11-06T11:44:28.650Z,17.13
2018-11-06T11:46:58.187Z,17.24
2018-11-06T11:49:27.860Z,17.37
2018-11-06T11:51:58.455Z,17.67
2018-11-06T11:54:28.792Z,18.16
2018-11-06T11:56:58.602Z,19.01
2018-11-06T11:59:28.414Z,19.76
2018-11-06T12:01:58.496Z,20.18
2018-11-06T12:04:28.329Z,20.64
2018-11-06T12:06:57.850Z,20.99
2018-11-06T12:09:27.648Z,21.30
2018-11-06T12:11:57.771Z,21.27
2018-11-06T12:14:27.581Z,21.23
2018-11-06T12:16:57.398Z,21.42
2018-11-06T12:19:27.158Z,21.49
2018-11-06T12:21:56.583Z,21.78
2018-11-06T12:24:26.124Z,21.85
2018-11-06T12:26:55.527Z,22.00
2018-11-06T12:29:25.080Z,22.35
2018-11-06T12:31:54.575Z,22.62
2018-11-06T12:34:25.277Z,22.65
2018-11-06T12:36:55.382Z,22.56
2018-11-06T12:39:24.860Z,22.60
2018-11-06T12:41:55.325Z,22.63
2018-11-06T12:44:24.847Z,22.91
2018-11-06T12:46:54.334Z,22.59
2018-11-06T12:49:24.416Z,22.29
2018-11-06T12:51:54.551Z,22.07
2018-11-06T12:54:24.081Z,21.90
2018-11-06T12:56:54.683Z,22.16
2018-11-06T12:59:24.310Z,22.30
2018-11-06T13:01:53.833Z,22.61
2018-11-06T13:04:24.522Z,22.78
2018-11-06T13:06:54.385Z,23.03
2018-11-06T13:09:24.178Z,23.04
2018-11-06T13:11:53.939Z,23.06
2018-11-06T13:14:23.771Z,23.35
2018-11-06T13:16:53.393Z,23.67
2018-11-06T13:19:24.638Z,24.79
2018-11-06T13:21:54.752Z,24.43
2018-11-06T13:24:25.203Z,24.31
2018-11-06T13:26:55.080Z,23.84
2018-11-06T13:29:26.164Z,23.25
2018-11-06T13:31:55.564Z,22.62
2018-11-06T13:34:34.798Z,22.20
2018-11-06T13:37:04.236Z,21.76
2018-11-06T13:39:33.801Z,21.35
2018-11-06T13:42:06.926Z,21.00
2018-11-06T13:44:37.810Z,20.73
2018-11-06T13:47:10.244Z,20.45
2018-11-06T13:49:39.885Z,20.28
2018-11-06T13:52:10.024Z,20.12
2018-11-06T13:54:43.262Z,19.95
2018-11-06T13:57:14.037Z,19.82
2018-11-06T13:59:43.895Z,19.70
2018-11-06T14:02:14.281Z,19.60
2018-11-06T14:04:45.031Z,19.50
2018-11-06T14:07:15.427Z,19.44
2018-11-06T14:09:46.169Z,19.35
2018-11-06T14:12:15.780Z,19.28
2018-11-06T14:14:46.225Z,19.22
2018-11-06T14:17:15.710Z,19.13
2018-11-06T14:19:45.470Z,19.07
2018-11-06T14:22:15.719Z,18.95
2018-11-06T14:24:54.898Z,18.90
2018-11-06T14:27:24.834Z,18.85
2018-11-06T14:29:56.268Z,18.78
2018-11-06T14:32:26.568Z,18.73
2018-11-06T14:34:57.797Z,18.69
2018-11-06T14:37:27.309Z,18.64
2018-11-06T14:39:57.528Z,18.57
2018-11-06T14:42:27.942Z,18.52
2018-11-06T14:44:58.789Z,18.47
2018-11-06T14:47:28.477Z,18.45
2018-11-06T14:49:59.189Z,18.42
2018-11-06T14:52:28.844Z,18.37
2018-11-06T14:54:59.135Z,18.30
2018-11-06T14:57:28.553Z,18.22
2018-11-06T14:59:59.738Z,18.14
2018-11-06T15:02:30.657Z,18.07
2018-11-06T15:05:02.769Z,18.01
2018-11-06T15:07:32.733Z,17.94
2018-11-06T15:10:03.468Z,17.87
2018-11-06T15:12:33.835Z,17.76
2018-11-06T15:15:04.933Z,17.70
2018-11-06T15:17:34.790Z,17.67
2018-11-06T15:20:05.164Z,17.55
2018-11-06T15:22:35.068Z,17.48
2018-11-06T15:25:04.596Z,17.38
2018-11-06T15:27:41.171Z,17.28
2018-11-06T15:30:13.830Z,17.19
2018-11-06T15:32:43.680Z,17.12
2018-11-06T15:35:15.294Z,17.02
2018-11-06T15:37:45.003Z,16.94
2018-11-06T15:40:16.459Z,16.88
2018-11-06T15:42:46.409Z,16.80
2018-11-06T15:45:17.142Z,16.74
2018-11-06T15:47:47.835Z,16.67
2018-11-06T15:50:18.472Z,16.59
2018-11-06T15:52:48.891Z,16.55
2018-11-06T15:55:21.540Z,16.53
2018-11-06T15:57:51.145Z,16.46
2018-11-06T16:00:22.373Z,16.39
2018-11-06T16:02:52.241Z,16.32
2018-11-06T16:05:22.181Z,16.27
2018-11-06T16:07:51.910Z,16.23
2018-11-06T16:10:23.101Z,16.20
2018-11-06T16:12:54.135Z,16.20
2018-11-06T16:15:24.223Z,16.15
2018-11-06T16:17:53.798Z,16.08
2018-11-06T16:20:23.591Z,16.05
2018-11-06T16:22:53.913Z,16.03
2018-11-06T16:25:23.680Z,15.96
2018-11-06T16:27:54.872Z,15.91
2018-11-06T16:30:24.881Z,15.86
2018-11-06T16:32:55.434Z,15.82
2018-11-06T16:35:25.451Z,15.79
2018-11-06T16:37:55.919Z,15.74
2018-11-06T16:40:25.682Z,15.69
2018-11-06T16:42:56.429Z,15.65
2018-11-06T16:45:26.827Z,15.60
2018-11-06T16:47:56.546Z,15.62
2018-11-06T16:50:27.574Z,15.63
2018-11-06T16:52:57.739Z,15.64
2018-11-06T16:55:27.755Z,15.62
2018-11-06T16:57:57.417Z,15.60
2018-11-06T17:00:27.945Z,15.66
2018-11-06T17:02:57.544Z,15.72
2018-11-06T17:05:27.293Z,15.71
2018-11-06T17:07:56.872Z,15.70
2018-11-06T17:10:26.669Z,15.75
2018-11-06T17:12:56.742Z,15.77
2018-11-06T17:15:26.304Z,15.74
2018-11-06T17:17:56.422Z,15.73
2018-11-06T17:20:27.303Z,15.70
2018-11-06T17:22:57.340Z,15.69
2018-11-06T17:25:28.040Z,15.68
2018-11-06T17:27:58.064Z,15.63
2018-11-06T17:30:27.702Z,15.60
2018-11-06T17:32:57.260Z,15.59
2018-11-06T17:35:26.929Z,15.60
2018-11-06T17:37:56.601Z,15.57
2018-11-06T17:40:26.369Z,15.60
2018-11-06T17:42:56.772Z,15.59
2018-11-06T17:45:26.800Z,15.60
2018-11-06T17:47:56.244Z,15.60
2018-11-06T17:50:25.815Z,15.58
2018-11-06T17:52:55.840Z,15.56
2018-11-06T17:55:25.976Z,15.55
2018-11-06T17:57:55.955Z,15.55
2018-11-06T18:00:25.796Z,15.58
2018-11-06T18:02:55.310Z,15.59
2018-11-06T18:05:25.780Z,15.64
2018-11-06T18:07:55.342Z,15.68
2018-11-06T18:10:25.138Z,15.65
2018-11-06T18:12:54.497Z,15.59
2018-11-06T18:15:23.927Z,15.55
2018-11-06T18:17:54.135Z,15.49
2018-11-06T18:20:23.656Z,15.46
2018-11-06T18:22:53.836Z,15.39
2018-11-06T18:25:24.696Z,15.36
2018-11-06T18:27:55.156Z,15.31
2018-11-06T18:30:26.589Z,15.28
2018-11-06T18:32:56.313Z,15.24
2018-11-06T18:35:25.823Z,15.21
2018-11-06T18:37:55.514Z,15.17
2018-11-06T18:40:25.228Z,15.15
2018-11-06T18:42:55.025Z,15.10
2018-11-06T18:45:24.754Z,15.08
2018-11-06T18:47:54.707Z,15.07
2018-11-06T18:50:24.255Z,15.02
2018-11-06T18:52:54.545Z,14.99
2018-11-06T18:55:24.306Z,14.94
2018-11-06T18:57:54.697Z,14.91
2018-11-06T19:00:24.856Z,14.86
2018-11-06T19:02:54.662Z,14.84
2018-11-06T19:05:24.884Z,14.78
2018-11-06T19:07:54.498Z,14.73
2018-11-06T19:10:24.259Z,14.68
2018-11-06T19:12:55.333Z,14.64
2018-11-06T19:15:26.291Z,14.64
2018-11-06T19:17:56.427Z,14.64
2018-11-06T19:20:25.998Z,14.59
2018-11-06T19:22:56.425Z,14.58
2018-11-06T19:25:29.428Z,14.52
2018-11-06T19:28:00.187Z,14.43
2018-11-06T19:30:30.223Z,14.38
2018-11-06T19:32:59.889Z,14.33
2018-11-06T19:35:29.814Z,14.26
2018-11-06T19:38:00.385Z,14.22
2018-11-06T19:40:31.197Z,14.20
2018-11-06T19:43:00.699Z,14.17
2018-11-06T19:45:30.377Z,14.14
2018-11-06T19:47:59.898Z,14.08
2018-11-06T19:50:29.379Z,14.05
2018-11-06T19:52:58.967Z,14.05
2018-11-06T19:55:29.098Z,14.03
2018-11-06T19:57:58.588Z,14.12
2018-11-06T20:00:28.682Z,14.11
2018-11-06T20:02:58.133Z,14.09
2018-11-06T20:05:28.522Z,14.09
2018-11-06T20:07:59.021Z,14.11
2018-11-06T20:10:28.483Z,14.12
2018-11-06T20:12:57.894Z,14.11
2018-11-06T20:15:28.149Z,14.22
2018-11-06T20:17:57.795Z,14.17
2018-11-06T20:20:28.065Z,14.12
2018-11-06T20:22:57.641Z,14.07
2018-11-06T20:25:27.364Z,14.05
2018-11-06T20:27:57.016Z,14.08
2018-11-06T20:30:27.425Z,14.04
2018-11-06T20:32:57.086Z,14.02
2018-11-06T20:35:26.592Z,13.98
2018-11-06T20:37:56.468Z,14.01
2018-11-06T20:40:27.507Z,13.99
2018-11-06T20:42:57.053Z,14.00
2018-11-06T20:45:26.777Z,13.99
2018-11-06T20:47:57.099Z,13.98
2018-11-06T20:50:26.755Z,14.03
2018-11-06T20:52:56.657Z,13.99
2018-11-06T20:55:26.436Z,14.00
2018-11-06T20:57:56.054Z,13.99
2018-11-06T21:00:28.110Z,13.99
2018-11-06T21:02:59.099Z,13.97
2018-11-06T21:05:28.864Z,14.00
2018-11-06T21:07:58.730Z,13.99
2018-11-06T21:10:29.718Z,14.00
2018-11-06T21:12:59.303Z,14.02
2018-11-06T21:15:28.750Z,14.05
2018-11-06T21:17:58.529Z,14.01
2018-11-06T21:20:28.345Z,14.01
2018-11-06T21:22:57.926Z,13.99
2018-11-06T21:25:27.787Z,13.96
2018-11-06T21:27:57.416Z,13.91
2018-11-06T21:30:27.088Z,13.88
2018-11-06T21:32:56.974Z,13.85
2018-11-06T21:35:26.631Z,13.81
2018-11-06T21:37:56.296Z,13.81
2018-11-06T21:40:25.829Z,13.82
2018-11-06T21:42:58.377Z,13.82
2018-11-06T21:45:28.256Z,13.81
2018-11-06T21:47:58.665Z,13.80
2018-11-06T21:50:28.291Z,13.82
2018-11-06T21:53:00.308Z,13.80
2018-11-06T21:55:30.138Z,13.80
2018-11-06T21:58:00.923Z,13.73
2018-11-06T22:00:31.992Z,13.71
2018-11-06T22:03:01.784Z,13.67
2018-11-06T22:05:31.432Z,13.67
2018-11-06T22:08:01.000Z,13.64
2018-11-06T22:10:30.934Z,13.63
2018-11-06T22:13:00.694Z,13.61
2018-11-06T22:15:30.637Z,13.56
2018-11-06T22:18:00.376Z,13.50
2018-11-06T22:20:30.102Z,13.47
2018-11-06T22:23:03.492Z,13.45
2018-11-06T22:25:34.539Z,13.44
2018-11-06T22:28:04.568Z,13.42
2018-11-06T22:30:35.908Z,13.37
2018-11-06T22:33:05.675Z,13.36
2018-11-06T22:35:35.494Z,13.36
2018-11-06T22:38:05.392Z,13.32
2018-11-06T22:40:35.872Z,13.32
2018-11-06T22:43:05.990Z,13.30
2018-11-06T22:45:37.332Z,13.29
2018-11-06T22:48:06.975Z,13.30
2018-11-06T22:50:39.412Z,13.24
2018-11-06T22:53:09.517Z,13.22
2018-11-06T22:55:41.195Z,13.18
2018-11-06T22:58:10.844Z,13.21
2018-11-06T23:00:47.211Z,13.21
2018-11-06T23:03:17.192Z,13.19
2018-11-06T23:05:46.886Z,13.17
2018-11-06T23:08:21.621Z,13.20
2018-11-06T23:10:51.582Z,13.20
2018-11-06T23:13:21.944Z,13.20
2018-11-06T23:15:51.678Z,13.17
2018-11-06T23:18:21.894Z,13.14
2018-11-06T23:20:51.276Z,13.11
2018-11-06T23:23:21.355Z,13.07
2018-11-06T23:25:52.581Z,13.04
2018-11-06T23:28:23.098Z,13.00
2018-11-06T23:30:54.248Z,12.96
2018-11-06T23:33:26.540Z,12.94
2018-11-06T23:35:58.038Z,12.94
2018-11-06T23:38:28.018Z,13.01
2018-11-06T23:40:57.874Z,12.97
2018-11-06T23:43:28.851Z,12.94
2018-11-06T23:45:59.199Z,12.90
2018-11-06T23:48:28.845Z,12.93
2018-11-06T23:50:58.647Z,12.88
2018-11-06T23:53:27.999Z,12.80
2018-11-06T23:55:57.808Z,12.82
2018-11-06T23:58:27.411Z,12.82
